createdAt,value
2018-11-25T00:00:28.028Z,101419.45
2018-11-25T00:02:56.867Z,101416.84
2018-11-25T00:05:25.403Z,101424.58
2018-11-25T00:07:54.187Z,101416.81
2018-11-25T00:10:22.778Z,101406.90
2018-11-25T00:12:51.420Z,101412.44
2018-11-25T00:15:20.039Z,101408.12
2018-11-25T00:17:48.656Z,101406.77
2018-11-25T00:20:17.220Z,101408.89
2018-11-25T00:22:45.713Z,101405.44
2018-11-25T00:25:15.301Z,101333.36
2018-11-25T00:27:43.840Z,101403.22
2018-11-25T00:30:13.668Z,101401.50
2018-11-25T00:32:42.380Z,101408.36
2018-11-25T00:35:12.234Z,101408.76
2018-11-25T00:37:47.534Z,101406.60
2018-11-25T00:40:11.147Z,101409.55
2018-11-25T00:42:39.739Z,101410.37
2018-11-25T00:45:10.614Z,101408.62
2018-11-25T00:47:39.139Z,101410.37
2018-11-25T00:50:09.856Z,101412.98
2018-11-25T00:52:38.377Z,101413.39
2018-11-25T00:55:09.879Z,101410.84
2018-11-25T00:57:38.475Z,101403.48
2018-11-25T01:00:16.417Z,101400.84
2018-11-25T01:02:45.235Z,101406.82
2018-11-25T01:05:13.816Z,101400.78
2018-11-25T01:07:42.810Z,101402.45
2018-11-25T01:10:12.689Z,101403.73
2018-11-25T01:12:41.473Z,101404.13
2018-11-25T01:15:12.410Z,101410.20
2018-11-25T01:17:41.235Z,101399.45
2018-11-25T01:20:15.348Z,101411.90
2018-11-25T01:22:43.930Z,101405.86
2018-11-25T01:25:12.656Z,101402.41
2018-11-25T01:27:41.201Z,101405.84
2018-11-25T01:30:13.095Z,101407.53
2018-11-25T01:32:41.745Z,101410.08
2018-11-25T01:35:11.424Z,101410.90
2018-11-25T01:37:40.051Z,101404.44
2018-11-25T01:40:13.989Z,101397.55
2018-11-25T01:42:42.543Z,101407.45
2018-11-25T01:45:13.196Z,101342.42
2018-11-25T01:47:41.821Z,101400.13
2018-11-25T01:50:14.625Z,101385.05
2018-11-25T01:52:43.414Z,101390.77
2018-11-25T01:55:13.152Z,101387.83
2018-11-25T01:57:41.777Z,101387.83
2018-11-25T02:00:15.376Z,101386.10
2018-11-25T02:02:44.131Z,101384.45
2018-11-25T02:05:12.665Z,101394.79
2018-11-25T02:07:41.533Z,101390.48
2018-11-25T02:10:15.109Z,101386.20
2018-11-25T02:12:43.694Z,101388.86
2018-11-25T02:15:13.269Z,101387.98
2018-11-25T02:17:41.937Z,101383.26
2018-11-25T02:20:25.629Z,101395.34
2018-11-25T02:22:55.301Z,101393.67
2018-11-25T02:25:23.881Z,101388.91
2018-11-25T02:27:52.652Z,101391.89
2018-11-25T02:30:21.325Z,101393.20
2018-11-25T02:32:50.133Z,101393.19
2018-11-25T02:35:18.776Z,101399.66
2018-11-25T02:37:47.384Z,101390.62
2018-11-25T02:40:17.452Z,101393.17
2018-11-25T02:42:46.189Z,101390.59
2018-11-25T02:45:16.497Z,101391.09
2018-11-25T02:47:45.168Z,101388.53
2018-11-25T02:50:29.253Z,101397.62
2018-11-25T02:52:59.952Z,101393.30
2018-11-25T02:55:28.624Z,101398.08
2018-11-25T02:57:57.508Z,101396.42
2018-11-25T03:00:26.117Z,101396.45
2018-11-25T03:02:54.793Z,101405.54
2018-11-25T03:05:23.385Z,101401.26
2018-11-25T03:07:51.921Z,101402.09
2018-11-25T03:10:20.613Z,101400.73
2018-11-25T03:12:49.124Z,101402.42
2018-11-25T03:15:18.461Z,101408.89
2018-11-25T03:17:47.041Z,101411.55
2018-11-25T03:20:16.586Z,101413.70
2018-11-25T03:22:45.160Z,101413.27
2018-11-25T03:25:16.657Z,101415.86
2018-11-25T03:27:45.204Z,101405.91
2018-11-25T03:30:17.854Z,101407.23
2018-11-25T03:32:47.180Z,101411.58
2018-11-25T03:35:15.928Z,101285.77
2018-11-25T03:37:44.566Z,101413.35
2018-11-25T03:40:14.937Z,101350.84
2018-11-25T03:42:43.624Z,101402.56
2018-11-25T03:45:14.468Z,101405.60
2018-11-25T03:47:43.108Z,101411.58
2018-11-25T03:50:12.689Z,101412.44
2018-11-25T03:52:41.252Z,101406.03
2018-11-25T03:55:13.502Z,101404.38
2018-11-25T03:57:42.030Z,101400.12
2018-11-25T04:00:16.065Z,101341.20
2018-11-25T04:02:44.918Z,101396.31
2018-11-25T04:05:14.734Z,101399.77
2018-11-25T04:07:43.461Z,101402.01
2018-11-25T04:10:13.224Z,101392.57
2018-11-25T04:12:42.249Z,101398.64
2018-11-25T04:15:15.750Z,101390.86
2018-11-25T04:17:44.363Z,101386.55
2018-11-25T04:20:14.805Z,101390.03
2018-11-25T04:22:43.404Z,101304.18
2018-11-25T04:25:12.468Z,101385.28
2018-11-25T04:27:41.204Z,101390.02
2018-11-25T04:30:10.959Z,101395.16
2018-11-25T04:32:39.740Z,101393.89
2018-11-25T04:35:09.697Z,101392.14
2018-11-25T04:37:38.556Z,101329.69
2018-11-25T04:40:08.705Z,101399.04
2018-11-25T04:42:37.441Z,101340.95
2018-11-25T04:45:07.630Z,101394.70
2018-11-25T04:47:36.437Z,101397.38
2018-11-25T04:50:07.780Z,101411.17
2018-11-25T04:52:36.677Z,101400.81
2018-11-25T04:55:06.215Z,101407.73
2018-11-25T04:57:35.057Z,101402.59
2018-11-25T05:00:03.690Z,101406.87
2018-11-25T05:02:32.469Z,101410.77
2018-11-25T05:05:01.014Z,101402.61
2018-11-25T05:07:29.574Z,101411.21
2018-11-25T05:09:58.091Z,101415.95
2018-11-25T05:12:26.660Z,101423.29
2018-11-25T05:14:55.372Z,101420.67
2018-11-25T05:17:23.872Z,101412.00
2018-11-25T05:19:52.602Z,101409.39
2018-11-25T05:22:21.107Z,101411.08
2018-11-25T05:24:49.754Z,101419.72
2018-11-25T05:27:29.242Z,101414.97
2018-11-25T05:29:57.947Z,101420.58
2018-11-25T05:32:26.837Z,101416.69
2018-11-25T05:34:55.445Z,101406.30
2018-11-25T05:37:24.074Z,101416.25
2018-11-25T05:39:52.631Z,101418.38
2018-11-25T05:42:21.215Z,101421.36
2018-11-25T05:44:50.064Z,101299.94
2018-11-25T05:47:18.585Z,101425.70
2018-11-25T05:49:47.371Z,101308.57
2018-11-25T05:52:15.889Z,101429.56
2018-11-25T05:54:44.596Z,101425.27
2018-11-25T05:57:13.130Z,101421.34
2018-11-25T05:59:41.686Z,101425.71
2018-11-25T06:02:10.202Z,101420.53
2018-11-25T06:04:38.923Z,101426.13
2018-11-25T06:07:08.020Z,101425.73
2018-11-25T06:09:36.572Z,101430.45
2018-11-25T06:12:05.449Z,101422.27
2018-11-25T06:14:34.029Z,101426.55
2018-11-25T06:17:02.676Z,101424.39
2018-11-25T06:19:31.187Z,101423.54
2018-11-25T06:21:59.742Z,101424.39
2018-11-25T06:24:28.405Z,101364.02
2018-11-25T06:27:08.948Z,101430.81
2018-11-25T06:29:37.829Z,101428.67
2018-11-25T06:32:06.397Z,101430.02
2018-11-25T06:34:38.732Z,101435.17
2018-11-25T06:37:09.101Z,101429.13
2018-11-25T06:39:50.758Z,101441.23
2018-11-25T06:42:37.499Z,101439.45
2018-11-25T06:45:24.149Z,101442.49
2018-11-25T06:52:02.771Z,101447.66
2018-11-25T06:55:22.434Z,101453.63
2018-11-25T07:01:19.238Z,101464.35
2018-11-25T07:03:53.367Z,101468.66
2018-11-25T07:06:29.849Z,101464.32
2018-11-25T07:08:59.152Z,101464.32
2018-11-25T07:11:27.941Z,101469.06
2018-11-25T07:13:56.581Z,101476.80
2018-11-25T07:16:25.210Z,101477.22
2018-11-25T07:18:54.043Z,101483.30
2018-11-25T07:21:22.568Z,101481.53
2018-11-25T07:23:51.691Z,101491.92
2018-11-25T07:26:20.247Z,101488.91
2018-11-25T07:28:49.823Z,101361.75
2018-11-25T07:31:18.503Z,101483.26
2018-11-25T07:33:48.215Z,101492.31
2018-11-25T07:36:16.777Z,101495.34
2018-11-25T07:38:45.909Z,101499.61
2018-11-25T07:41:14.425Z,101501.73
2018-11-25T07:43:43.120Z,101511.22
2018-11-25T07:46:12.201Z,101515.95
2018-11-25T07:48:40.772Z,101515.06
2018-11-25T07:51:10.035Z,101515.55
2018-11-25T07:53:38.810Z,101522.87
2018-11-25T07:56:08.416Z,101528.08
2018-11-25T07:58:37.151Z,101520.31
2018-11-25T08:01:05.718Z,101514.34
2018-11-25T08:03:34.371Z,101518.70
2018-11-25T08:06:05.505Z,101522.15
2018-11-25T08:08:34.209Z,101522.61
2018-11-25T08:11:03.055Z,101529.95
2018-11-25T08:13:31.677Z,101529.16
2018-11-25T08:16:00.301Z,101535.20
2018-11-25T08:18:28.913Z,101536.98
2018-11-25T08:20:57.516Z,101537.02
2018-11-25T08:23:26.153Z,101529.31
2018-11-25T08:25:55.720Z,101530.16
2018-11-25T08:28:24.418Z,101530.67
2018-11-25T08:30:53.076Z,101528.96
2018-11-25T08:33:21.884Z,101532.05
2018-11-25T08:35:50.397Z,101542.44
2018-11-25T08:38:19.304Z,101544.22
2018-11-25T08:40:48.115Z,101538.20
2018-11-25T08:43:16.762Z,101546.01
2018-11-25T08:45:45.452Z,101540.45
2018-11-25T08:48:14.399Z,101539.19
2018-11-25T08:50:43.405Z,101537.91
2018-11-25T08:53:12.099Z,101537.94
2018-11-25T08:55:41.079Z,101483.67
2018-11-25T08:58:09.701Z,101521.19
2018-11-25T09:00:38.351Z,101522.91
2018-11-25T09:03:06.865Z,101525.52
2018-11-25T09:05:35.381Z,101535.92
2018-11-25T09:08:04.095Z,101535.06
2018-11-25T09:10:32.673Z,101544.63
2018-11-25T09:13:01.484Z,101537.30
2018-11-25T09:15:31.138Z,101548.13
2018-11-25T09:18:00.266Z,101552.02
2018-11-25T09:20:28.966Z,101542.98
2018-11-25T09:22:58.034Z,101545.17
2018-11-25T09:25:33.340Z,101544.34
2018-11-25T09:28:03.350Z,101539.25
2018-11-25T09:30:32.678Z,101537.23
2018-11-25T09:33:01.304Z,101537.36
2018-11-25T09:35:30.021Z,101537.71
2018-11-25T09:37:58.755Z,101541.56
2018-11-25T09:40:28.052Z,101548.52
2018-11-25T09:42:56.829Z,101486.02
2018-11-25T09:45:25.425Z,101537.41
2018-11-25T09:47:54.295Z,101533.11
2018-11-25T09:50:23.800Z,101527.07
2018-11-25T09:52:52.893Z,101533.96
2018-11-25T09:55:23.417Z,101527.92
2018-11-25T09:57:59.333Z,101530.08
2018-11-25T10:00:35.356Z,101525.31
2018-11-25T10:03:05.140Z,101522.72
2018-11-25T10:05:33.750Z,101516.70
2018-11-25T10:08:03.440Z,101390.98
2018-11-25T10:10:31.981Z,101495.05
2018-11-25T10:13:01.039Z,101500.27
2018-11-25T10:15:30.380Z,101497.70
2018-11-25T10:18:00.179Z,101493.40
2018-11-25T10:20:29.124Z,101501.20
2018-11-25T10:22:57.822Z,101502.50
2018-11-25T10:25:26.474Z,101500.34
2018-11-25T10:27:55.133Z,101496.03
2018-11-25T10:30:25.754Z,101455.25
2018-11-25T10:32:57.000Z,101506.86
2018-11-25T10:35:25.629Z,101497.33
2018-11-25T10:37:54.285Z,101502.98
2018-11-25T10:40:23.989Z,101503.00
2018-11-25T10:42:52.835Z,101503.85
2018-11-25T10:45:23.283Z,101497.81
2018-11-25T10:47:51.912Z,101502.13
2018-11-25T10:50:21.050Z,101509.94
2018-11-25T10:52:49.829Z,101514.26
2018-11-25T10:55:19.341Z,101512.95
2018-11-25T10:57:48.852Z,101514.27
2018-11-25T11:00:30.663Z,101520.33
2018-11-25T11:03:04.653Z,101519.45
2018-11-25T11:05:38.577Z,101527.25
2018-11-25T11:08:07.912Z,101508.63
2018-11-25T11:10:36.512Z,101518.62
2018-11-25T11:13:06.065Z,101513.41
2018-11-25T11:15:34.584Z,101522.52
2018-11-25T11:18:03.409Z,101514.72
2018-11-25T11:20:31.936Z,101514.27
2018-11-25T11:23:01.419Z,101531.63
2018-11-25T11:25:30.198Z,101518.63
2018-11-25T11:27:59.808Z,101510.83
2018-11-25T11:30:28.297Z,101521.66
2018-11-25T11:32:57.303Z,101508.23
2018-11-25T11:35:25.926Z,101514.28
2018-11-25T11:37:54.523Z,101512.56
2018-11-25T11:40:23.149Z,101432.84
2018-11-25T11:42:52.046Z,101519.91
2018-11-25T11:45:21.221Z,101521.20
2018-11-25T11:47:49.849Z,101515.16
2018-11-25T11:50:19.942Z,101462.28
2018-11-25T11:52:48.878Z,101525.11
2018-11-25T11:55:18.397Z,101519.48
2018-11-25T11:57:49.234Z,101524.69
2018-11-25T12:00:21.373Z,101514.27
2018-11-25T12:02:50.284Z,101511.67
2018-11-25T12:05:18.837Z,101511.66
2018-11-25T12:07:47.425Z,101517.70
2018-11-25T12:10:16.972Z,101509.47
2018-11-25T12:12:45.509Z,101508.17
2018-11-25T12:15:29.760Z,101510.77
2018-11-25T12:17:50.878Z,101514.67
2018-11-25T12:20:21.358Z,101507.28
2018-11-25T12:22:49.526Z,101461.84
2018-11-25T12:25:18.409Z,101512.94
2018-11-25T12:27:47.303Z,101501.23
2018-11-25T12:30:16.512Z,101508.16
2018-11-25T12:32:46.829Z,101515.97
2018-11-25T12:35:16.576Z,101515.09
2018-11-25T12:37:45.582Z,101506.44
2018-11-25T12:40:15.228Z,101504.69
2018-11-25T12:42:45.169Z,101495.58
2018-11-25T12:45:15.145Z,101494.28
2018-11-25T12:47:43.941Z,101498.64
2018-11-25T12:50:14.856Z,101497.77
2018-11-25T12:52:43.424Z,101495.18
2018-11-25T12:55:13.376Z,101499.95
2018-11-25T12:57:42.444Z,101500.38
2018-11-25T13:00:22.509Z,101500.84
2018-11-25T13:02:51.286Z,101495.65
2018-11-25T13:05:19.984Z,101496.49
2018-11-25T13:07:48.584Z,101493.47
2018-11-25T13:10:17.161Z,101491.30
2018-11-25T13:12:45.726Z,101496.08
2018-11-25T13:15:14.470Z,101499.55
2018-11-25T13:17:43.053Z,101492.60
2018-11-25T13:20:14.050Z,101494.78
2018-11-25T13:22:42.709Z,101491.76
2018-11-25T13:25:12.669Z,101486.56
2018-11-25T13:27:41.251Z,101482.20
2018-11-25T13:30:20.312Z,101486.10
2018-11-25T13:32:48.642Z,101484.80
2018-11-25T13:35:17.180Z,101487.40
2018-11-25T13:37:46.020Z,101484.37
2018-11-25T13:40:15.503Z,101484.80
2018-11-25T13:42:44.191Z,101483.96
2018-11-25T13:45:12.876Z,101485.69
2018-11-25T13:47:41.457Z,101487.41
2018-11-25T13:50:11.246Z,101472.69
2018-11-25T13:52:39.999Z,101481.36
2018-11-25T13:55:11.270Z,101484.80
2018-11-25T13:57:40.000Z,101490.00
2018-11-25T14:00:17.887Z,101494.36
2018-11-25T14:02:46.417Z,101490.03
2018-11-25T14:05:15.277Z,101490.03
2018-11-25T14:07:43.933Z,101486.56
2018-11-25T14:10:17.084Z,101489.58
2018-11-25T14:12:45.613Z,101487.44
2018-11-25T14:15:14.520Z,101490.87
2018-11-25T14:17:43.073Z,101494.35
2018-11-25T14:20:11.786Z,101491.75
2018-11-25T14:22:40.290Z,101484.37
2018-11-25T14:25:10.899Z,101491.75
2018-11-25T14:27:39.500Z,101495.64
2018-11-25T14:30:28.294Z,101490.87
2018-11-25T14:32:56.856Z,101494.34
2018-11-25T14:35:25.578Z,101435.41
2018-11-25T14:37:54.100Z,101492.61
2018-11-25T14:40:23.089Z,101412.87
2018-11-25T14:42:52.082Z,101481.33
2018-11-25T14:45:21.070Z,101485.23
2018-11-25T14:47:49.693Z,101478.73
2018-11-25T14:50:19.828Z,101482.62
2018-11-25T14:52:49.637Z,101489.98
2018-11-25T14:55:19.018Z,101488.25
2018-11-25T14:57:47.560Z,101488.25
2018-11-25T15:00:20.335Z,101475.23
2018-11-25T15:02:51.385Z,101488.23
2018-11-25T15:05:29.083Z,101487.34
2018-11-25T15:07:57.704Z,101493.41
2018-11-25T15:10:26.270Z,101495.97
2018-11-25T15:12:54.815Z,101497.67
2018-11-25T15:15:23.363Z,101501.16
2018-11-25T15:17:52.083Z,101436.11
2018-11-25T15:20:21.661Z,101501.97
2018-11-25T15:22:53.141Z,101500.66
2018-11-25T15:25:24.840Z,101504.56
2018-11-25T15:27:53.570Z,101507.58
2018-11-25T15:30:22.248Z,101513.64
2018-11-25T15:32:50.877Z,101512.75
2018-11-25T15:35:19.413Z,101512.33
2018-11-25T15:37:49.420Z,101511.85
2018-11-25T15:40:21.217Z,101509.69
2018-11-25T15:42:49.812Z,101426.43
2018-11-25T15:45:18.400Z,101507.05
2018-11-25T15:47:48.817Z,101498.34
2018-11-25T15:50:20.423Z,101502.62
2018-11-25T15:52:49.002Z,101507.80
2018-11-25T15:55:17.981Z,101506.00
2018-11-25T15:57:46.545Z,101507.70
2018-11-25T16:00:18.777Z,101519.75
2018-11-25T16:02:47.420Z,101520.55
2018-11-25T16:05:17.584Z,101527.41
2018-11-25T16:07:46.165Z,101525.17
2018-11-25T16:10:15.254Z,101522.97
2018-11-25T16:12:45.214Z,101529.80
2018-11-25T16:15:15.450Z,101530.64
2018-11-25T16:17:43.942Z,101534.04
2018-11-25T16:20:14.817Z,101529.66
2018-11-25T16:22:44.225Z,101528.83
2018-11-25T16:25:24.360Z,101529.63
2018-11-25T16:27:55.853Z,101533.92
2018-11-25T16:30:24.804Z,101473.97
2018-11-25T16:32:53.330Z,101522.58
2018-11-25T16:35:22.065Z,101527.71
2018-11-25T16:37:50.696Z,101531.98
2018-11-25T16:40:19.295Z,101373.97
2018-11-25T16:42:47.941Z,101533.57
2018-11-25T16:45:17.362Z,101536.53
2018-11-25T16:47:46.128Z,101531.30
2018-11-25T16:50:24.557Z,101538.18
2018-11-25T16:52:44.892Z,101529.48
2018-11-25T16:55:14.671Z,101529.88
2018-11-25T16:57:44.189Z,101535.00
2018-11-25T17:00:16.077Z,101535.33
2018-11-25T17:02:44.662Z,101535.70
2018-11-25T17:05:15.765Z,101528.75
2018-11-25T17:07:46.097Z,101476.52
2018-11-25T17:10:15.071Z,101536.00
2018-11-25T17:12:43.632Z,101533.77
2018-11-25T17:15:17.345Z,101532.00
2018-11-25T17:17:46.116Z,101531.94
2018-11-25T17:20:15.612Z,101533.59
2018-11-25T17:22:44.137Z,101528.81
2018-11-25T17:25:13.653Z,101411.04
2018-11-25T17:27:42.392Z,101533.47
2018-11-25T17:30:14.684Z,101528.22
2018-11-25T17:32:43.701Z,101522.16
2018-11-25T17:35:15.260Z,101523.81
2018-11-25T17:37:43.885Z,101523.73
2018-11-25T17:40:12.473Z,101533.16
2018-11-25T17:42:42.157Z,101530.98
2018-11-25T17:45:12.602Z,101441.86
2018-11-25T17:47:41.534Z,101533.54
2018-11-25T17:50:18.737Z,101533.92
2018-11-25T17:52:47.817Z,101533.02
2018-11-25T17:55:17.018Z,101534.27
2018-11-25T17:57:45.678Z,101541.59
2018-11-25T18:00:23.972Z,101540.27
2018-11-25T18:02:53.662Z,101543.27
2018-11-25T18:05:22.322Z,101537.61
2018-11-25T18:07:50.942Z,101543.59
2018-11-25T18:10:19.673Z,101546.56
2018-11-25T18:12:48.360Z,101544.83
2018-11-25T18:15:20.206Z,101545.22
2018-11-25T18:17:57.396Z,101550.80
2018-11-25T18:20:28.976Z,101550.73
2018-11-25T18:22:58.659Z,101542.08
2018-11-25T18:25:28.268Z,101535.59
2018-11-25T18:28:00.511Z,101534.69
2018-11-25T18:30:28.800Z,101536.45
2018-11-25T18:32:58.416Z,101533.81
2018-11-25T18:35:28.114Z,101472.36
2018-11-25T18:37:57.762Z,101537.64
2018-11-25T18:40:26.589Z,101541.92
2018-11-25T18:42:55.357Z,101537.59
2018-11-25T18:45:24.843Z,101535.44
2018-11-25T18:47:54.039Z,101538.41
2018-11-25T18:50:23.545Z,101535.83
2018-11-25T18:52:53.949Z,101533.24
2018-11-25T18:55:21.381Z,101480.95
2018-11-25T18:57:50.126Z,101540.55
2018-11-25T19:00:26.893Z,101538.35
2018-11-25T19:02:56.505Z,101541.80
2018-11-25T19:05:25.593Z,101549.54
2018-11-25T19:07:55.389Z,101547.81
2018-11-25T19:10:26.281Z,101547.76
2018-11-25T19:12:56.967Z,101551.11
2018-11-25T19:15:27.178Z,101544.16
2018-11-25T19:18:03.039Z,101550.17
2018-11-25T19:20:32.903Z,101546.63
2018-11-25T19:23:02.456Z,101551.30
2018-11-25T19:25:33.346Z,101557.32
2018-11-25T19:28:03.573Z,101549.11
2018-11-25T19:30:32.567Z,101549.95
2018-11-25T19:33:01.678Z,101560.28
2018-11-25T19:35:30.656Z,101525.89
2018-11-25T19:38:02.919Z,101554.16
2018-11-25T19:40:32.099Z,101557.20
2018-11-25T19:43:02.325Z,101557.65
2018-11-25T19:45:31.319Z,101552.66
2018-11-25T19:48:01.334Z,101551.30
2018-11-25T19:50:33.720Z,101557.27
2018-11-25T19:53:03.302Z,101555.39
2018-11-25T19:55:31.995Z,101560.05
2018-11-25T19:58:00.582Z,101556.50
2018-11-25T20:00:29.320Z,101556.39
2018-11-25T20:02:58.570Z,101556.33
2018-11-25T20:05:27.251Z,101552.81
2018-11-25T20:07:56.375Z,101550.17
2018-11-25T20:10:26.508Z,101554.83
2018-11-25T20:12:56.728Z,101552.60
2018-11-25T20:15:25.360Z,101557.30
2018-11-25T20:17:54.786Z,101552.52
2018-11-25T20:20:25.653Z,101553.30
2018-11-25T20:22:54.841Z,101557.52
2018-11-25T20:25:23.422Z,101556.57
2018-11-25T20:27:54.019Z,101497.30
2018-11-25T20:30:27.869Z,101560.78
2018-11-25T20:33:01.678Z,101558.14
2018-11-25T20:35:30.263Z,101558.89
2018-11-25T20:38:04.131Z,101565.27
2018-11-25T20:40:32.741Z,101565.68
2018-11-25T20:43:01.552Z,101556.59
2018-11-25T20:45:38.961Z,101562.97
2018-11-25T20:48:04.181Z,101568.06
2018-11-25T20:50:32.785Z,101563.69
2018-11-25T20:53:06.575Z,101540.12
2018-11-25T20:55:35.374Z,101567.48
2018-11-25T20:58:04.018Z,101566.98
2018-11-25T21:00:32.717Z,101563.92
2018-11-25T21:03:01.234Z,101561.28
2018-11-25T21:05:29.949Z,101562.09
2018-11-25T21:07:59.710Z,101457.06
2018-11-25T21:10:28.253Z,101565.86
2018-11-25T21:12:57.113Z,101564.02
2018-11-25T21:15:25.689Z,101568.30
2018-11-25T21:17:54.524Z,101508.58
2018-11-25T21:20:26.137Z,101561.31
2018-11-25T21:22:54.996Z,101534.31
2018-11-25T21:25:24.077Z,101560.36
2018-11-25T21:27:52.865Z,101564.59
2018-11-25T21:30:22.624Z,101560.21
2018-11-25T21:32:52.722Z,101565.29
2018-11-25T21:35:21.301Z,101558.34
2018-11-25T21:37:50.260Z,101558.70
2018-11-25T21:40:21.202Z,101560.84
2018-11-25T21:42:50.073Z,101567.65
2018-11-25T21:45:19.495Z,101567.61
2018-11-25T21:47:48.781Z,101565.77
2018-11-25T21:50:18.873Z,101573.09
2018-11-25T21:52:47.788Z,101521.03
2018-11-25T21:55:17.358Z,101582.03
2018-11-25T21:57:46.638Z,101585.45
2018-11-25T22:00:16.163Z,101587.07
2018-11-25T22:02:45.298Z,101578.50
2018-11-25T22:05:14.321Z,101576.70
2018-11-25T22:07:43.026Z,101584.38
2018-11-25T22:10:12.717Z,101581.36
2018-11-25T22:12:42.368Z,101576.50
2018-11-25T22:15:19.828Z,101578.64
2018-11-25T22:17:48.397Z,101578.20
2018-11-25T22:20:17.675Z,101578.12
2018-11-25T22:22:47.416Z,101576.35
2018-11-25T22:25:17.149Z,101583.19
2018-11-25T22:27:45.729Z,101579.70
2018-11-25T22:30:24.897Z,101577.96
2018-11-25T22:32:53.657Z,101502.12
2018-11-25T22:35:23.449Z,101571.81
2018-11-25T22:37:52.185Z,101429.44
2018-11-25T22:40:21.324Z,101576.59
2018-11-25T22:42:50.825Z,101572.30
2018-11-25T22:45:21.563Z,101568.87
2018-11-25T22:47:50.335Z,101478.70
2018-11-25T22:50:20.017Z,101572.73
2018-11-25T22:52:49.154Z,101566.67
2018-11-25T22:55:19.915Z,101570.92
2018-11-25T22:57:48.666Z,101466.32
2018-11-25T23:00:26.325Z,101565.70
2018-11-25T23:02:54.896Z,101565.27
2018-11-25T23:05:35.094Z,101571.70
2018-11-25T23:08:03.949Z,101568.23
2018-11-25T23:10:32.642Z,101555.73
2018-11-25T23:13:01.351Z,101551.83
2018-11-25T23:15:29.917Z,101553.56
2018-11-25T23:17:58.522Z,101548.34
2018-11-25T23:20:27.112Z,101550.91
2018-11-25T23:22:55.929Z,101567.64
2018-11-25T23:25:24.537Z,101548.30
2018-11-25T23:27:53.338Z,101549.55
2018-11-25T23:30:21.889Z,101547.89
2018-11-25T23:32:50.589Z,101546.61
2018-11-25T23:35:28.597Z,101546.98
2018-11-25T23:37:57.336Z,101542.23
2018-11-25T23:40:26.126Z,101544.36
2018-11-25T23:42:54.753Z,101537.92
2018-11-25T23:45:23.350Z,101536.64
2018-11-25T23:47:52.193Z,101534.91
2018-11-25T23:50:21.678Z,101534.47
2018-11-25T23:52:50.509Z,101509.23
2018-11-25T23:55:19.060Z,101528.44
2018-11-25T23:57:47.932Z,101524.83
